createdAt,value
2018-09-21T00:00:47.311Z,10.97
2018-09-21T00:03:16.445Z,12.57
2018-09-21T00:05:44.835Z,7.27
2018-09-21T00:08:13.130Z,6.97
2018-09-21T00:10:41.439Z,7.93
2018-09-21T00:13:10.118Z,9.53
2018-09-21T00:15:38.413Z,10.83
2018-09-21T00:18:06.726Z,8.17
2018-09-21T00:20:34.974Z,9.00
2018-09-21T00:23:03.177Z,7.53
2018-09-21T00:25:31.899Z,11.37
2018-09-21T00:28:00.525Z,9.87
2018-09-21T00:30:28.985Z,12.47
2018-09-21T00:32:57.162Z,7.00
2018-09-21T00:35:25.476Z,9.77
2018-09-21T00:37:53.923Z,10.03
2018-09-21T00:40:22.312Z,9.77
2018-09-21T00:42:50.573Z,9.60
2018-09-21T00:45:18.822Z,8.77
2018-09-21T00:47:47.177Z,8.73
2018-09-21T00:50:16.115Z,8.83
2018-09-21T00:52:45.079Z,8.70
2018-09-21T00:55:13.494Z,7.40
2018-09-21T00:57:41.866Z,9.83
2018-09-21T01:00:10.082Z,7.53
2018-09-21T01:02:38.435Z,8.07
2018-09-21T01:05:06.970Z,8.10
2018-09-21T01:07:35.194Z,7.57
2018-09-21T01:10:03.628Z,11.60
2018-09-21T01:12:31.918Z,6.93
2018-09-21T01:15:00.370Z,8.47
2018-09-21T01:17:30.092Z,8.70
2018-09-21T01:19:58.431Z,8.30
2018-09-21T01:22:27.266Z,8.07
2018-09-21T01:24:55.575Z,8.67
2018-09-21T01:27:24.659Z,10.23
2018-09-21T01:29:53.238Z,8.27
2018-09-21T01:32:21.695Z,8.80
2018-09-21T01:34:49.982Z,7.73
2018-09-21T01:37:18.204Z,9.97
2018-09-21T01:39:46.617Z,8.73
2018-09-21T01:42:15.051Z,6.93
2018-09-21T01:44:43.496Z,8.77
2018-09-21T01:47:11.823Z,8.30
2018-09-21T01:49:40.087Z,9.93
2018-09-21T01:52:08.594Z,8.23
2018-09-21T01:54:37.006Z,9.27
2018-09-21T01:57:05.241Z,11.33
2018-09-21T01:59:33.499Z,9.43
2018-09-21T02:02:01.921Z,9.00
2018-09-21T02:04:35.364Z,11.47
2018-09-21T02:07:03.970Z,8.87
2018-09-21T02:09:32.237Z,8.43
2018-09-21T02:12:00.501Z,7.70
2018-09-21T02:14:28.749Z,9.97
2018-09-21T02:16:56.980Z,8.93
2018-09-21T02:19:25.238Z,9.63
2018-09-21T02:21:54.110Z,9.70
2018-09-21T02:24:22.799Z,8.30
2018-09-21T02:26:51.657Z,10.40
2018-09-21T02:29:19.842Z,10.03
2018-09-21T02:31:48.723Z,9.60
2018-09-21T02:34:17.585Z,10.53
2018-09-21T02:36:46.455Z,7.87
2018-09-21T02:39:14.701Z,9.57
2018-09-21T02:41:42.938Z,9.17
2018-09-21T02:44:11.128Z,9.17
2018-09-21T02:46:39.367Z,10.53
2018-09-21T02:49:07.683Z,10.43
2018-09-21T02:51:35.891Z,9.43
2018-09-21T02:54:04.124Z,9.50
2018-09-21T02:56:32.356Z,9.57
2018-09-21T02:59:01.026Z,11.47
2018-09-21T03:01:29.290Z,8.87
2018-09-21T03:03:57.489Z,8.43
2018-09-21T03:06:25.674Z,10.50
2018-09-21T03:08:54.202Z,10.63
2018-09-21T03:11:22.538Z,14.57
2018-09-21T03:13:50.713Z,13.57
2018-09-21T03:16:18.942Z,10.43
2018-09-21T03:18:47.282Z,13.53
2018-09-21T03:21:15.696Z,11.40
2018-09-21T03:23:43.910Z,13.10
2018-09-21T03:26:12.189Z,10.90
2018-09-21T03:28:40.456Z,13.07
2018-09-21T03:31:08.807Z,12.10
2018-09-21T03:33:37.411Z,12.70
2018-09-21T03:36:05.636Z,13.23
2018-09-21T03:38:33.815Z,12.50
2018-09-21T03:41:02.048Z,12.10
2018-09-21T03:43:30.337Z,14.03
2018-09-21T03:45:58.549Z,11.33
2018-09-21T03:48:26.820Z,12.70
2018-09-21T03:50:55.057Z,12.27
2018-09-21T03:53:23.457Z,15.73
2018-09-21T03:55:51.675Z,15.17
2018-09-21T03:58:20.096Z,13.13
2018-09-21T04:00:48.352Z,15.80
2018-09-21T04:03:16.790Z,12.47
2018-09-21T04:05:45.151Z,14.83
2018-09-21T04:08:13.434Z,14.53
2018-09-21T04:10:41.676Z,12.83
2018-09-21T04:13:09.951Z,12.90
2018-09-21T04:15:39.166Z,13.77
2018-09-21T04:18:07.517Z,13.73
2018-09-21T04:20:35.715Z,13.20
2018-09-21T04:23:04.020Z,12.20
2018-09-21T04:25:32.970Z,13.63
2018-09-21T04:28:02.205Z,13.73
2018-09-21T04:30:30.561Z,13.13
2018-09-21T04:32:59.268Z,13.63
2018-09-21T04:35:27.590Z,16.73
2018-09-21T04:37:55.781Z,14.67
2018-09-21T04:40:24.063Z,12.97
2018-09-21T04:42:52.374Z,17.77
2018-09-21T04:45:20.629Z,14.43
2018-09-21T04:47:48.870Z,16.13
2018-09-21T04:50:17.288Z,14.73
2018-09-21T04:52:45.563Z,15.43
2018-09-21T04:55:13.751Z,15.67
2018-09-21T04:57:42.180Z,17.50
2018-09-21T05:00:10.421Z,14.30
2018-09-21T05:02:38.665Z,15.43
2018-09-21T05:05:06.967Z,16.80
2018-09-21T05:07:35.402Z,17.30
2018-09-21T05:10:03.765Z,16.30
2018-09-21T05:12:32.419Z,16.07
2018-09-21T05:15:01.610Z,18.67
2018-09-21T05:17:29.972Z,20.27
2018-09-21T05:19:58.187Z,16.17
2018-09-21T05:22:26.408Z,17.57
2018-09-21T05:24:54.720Z,16.30
2018-09-21T05:27:23.028Z,18.20
2018-09-21T05:29:51.234Z,17.63
2018-09-21T05:32:19.443Z,16.40
2018-09-21T05:34:47.838Z,15.97
2018-09-21T05:37:15.959Z,16.40
2018-09-21T05:39:44.511Z,15.40
2018-09-21T05:42:12.716Z,14.50
2018-09-21T05:44:40.927Z,15.37
2018-09-21T05:47:09.401Z,19.83
2018-09-21T05:49:37.625Z,16.13
2018-09-21T05:52:05.843Z,15.13
2018-09-21T05:54:34.038Z,15.10
2018-09-21T05:57:02.433Z,14.90
2018-09-21T05:59:30.771Z,15.03
2018-09-21T06:01:59.051Z,22.43
2018-09-21T06:04:27.201Z,17.17
2018-09-21T06:06:55.651Z,16.80
2018-09-21T06:09:23.903Z,15.03
2018-09-21T06:11:52.116Z,16.37
2018-09-21T06:14:20.310Z,15.57
2018-09-21T06:16:48.587Z,19.50
2018-09-21T06:19:17.219Z,14.90
2018-09-21T06:21:45.614Z,15.70
2018-09-21T06:24:13.822Z,15.63
2018-09-21T06:26:42.102Z,17.50
2018-09-21T06:29:10.319Z,15.73
2018-09-21T06:31:38.630Z,16.37
2018-09-21T06:34:07.051Z,15.50
2018-09-21T06:36:35.265Z,15.13
2018-09-21T06:39:04.762Z,17.63
2018-09-21T06:41:32.990Z,16.37
2018-09-21T06:44:01.259Z,14.83
2018-09-21T06:46:29.566Z,13.17
2018-09-21T06:48:57.794Z,13.83
2018-09-21T06:51:25.992Z,14.43
2018-09-21T06:53:54.331Z,14.07
2018-09-21T06:56:22.682Z,12.47
2018-09-21T06:58:50.902Z,12.03
2018-09-21T07:01:19.408Z,12.10
2018-09-21T07:03:47.885Z,13.77
2018-09-21T07:06:16.391Z,12.27
2018-09-21T07:08:44.637Z,11.17
2018-09-21T07:11:12.867Z,10.47
2018-09-21T07:13:41.057Z,10.13
2018-09-21T07:16:09.488Z,10.60
2018-09-21T07:18:37.723Z,12.00
2018-09-21T07:21:05.948Z,11.57
2018-09-21T07:23:34.164Z,11.53
2018-09-21T07:26:02.478Z,9.73
2018-09-21T07:28:30.991Z,10.43
2018-09-21T07:30:59.200Z,10.60
2018-09-21T07:33:27.418Z,10.23
2018-09-21T07:35:55.682Z,11.00
2018-09-21T07:38:24.141Z,11.97
2018-09-21T07:40:52.535Z,14.63
2018-09-21T07:43:20.771Z,11.03
2018-09-21T07:45:49.325Z,12.67
2018-09-21T07:48:17.531Z,13.07
2018-09-21T07:50:46.043Z,14.83
2018-09-21T07:53:14.408Z,8.80
2018-09-21T07:55:42.673Z,9.60
2018-09-21T07:58:10.888Z,12.10
2018-09-21T08:00:39.264Z,7.40
2018-09-21T08:03:08.070Z,8.20
2018-09-21T08:05:36.330Z,10.08
2018-09-21T08:08:05.582Z,8.23
2018-09-21T08:10:33.851Z,9.73
2018-09-21T08:13:02.352Z,10.08
2018-09-21T08:15:31.025Z,12.68
2018-09-21T08:17:59.270Z,12.37
2018-09-21T08:20:28.014Z,9.10
2018-09-21T08:22:56.288Z,7.58
2018-09-21T08:25:26.218Z,9.73
2018-09-21T08:27:54.627Z,9.85
2018-09-21T08:30:22.942Z,9.40
2018-09-21T08:32:51.178Z,10.85
2018-09-21T08:35:19.393Z,9.83
2018-09-21T08:37:47.610Z,5.67
2018-09-21T08:40:15.851Z,7.65
2018-09-21T08:42:44.080Z,7.45
2018-09-21T08:45:12.345Z,5.20
2018-09-21T08:47:40.537Z,4.85
2018-09-21T08:50:09.766Z,8.38
2018-09-21T08:52:38.391Z,9.18
2018-09-21T08:55:07.273Z,5.72
2018-09-21T08:57:35.487Z,5.67
2018-09-21T09:00:03.753Z,6.67
2018-09-21T09:02:32.165Z,5.70
2018-09-21T09:05:01.059Z,4.58
2018-09-21T09:07:30.598Z,7.33
2018-09-21T09:09:58.798Z,6.45
2018-09-21T09:12:27.146Z,5.92
2018-09-21T09:14:55.408Z,10.08
2018-09-21T09:17:23.767Z,8.28
2018-09-21T09:19:52.369Z,8.70
2018-09-21T09:22:20.624Z,5.92
2018-09-21T09:24:48.976Z,5.47
2018-09-21T09:27:17.694Z,6.05
2018-09-21T09:29:46.151Z,8.83
2018-09-21T09:32:14.350Z,10.53
2018-09-21T09:34:42.567Z,7.92
2018-09-21T09:37:10.787Z,8.05
2018-09-21T09:39:39.203Z,5.47
2018-09-21T09:42:07.527Z,6.40
2018-09-21T09:44:35.798Z,6.45
2018-09-21T09:47:04.062Z,5.62
2018-09-21T09:49:32.297Z,12.20
2018-09-21T09:52:00.634Z,8.50
2018-09-21T09:54:28.882Z,7.97
2018-09-21T09:56:57.103Z,5.25
2018-09-21T09:59:25.352Z,12.82
2018-09-21T10:01:54.280Z,5.17
2018-09-21T10:04:22.543Z,7.90
2018-09-21T10:06:51.155Z,7.90
2018-09-21T10:09:19.520Z,8.30
2018-09-21T10:11:47.907Z,11.63
2018-09-21T10:14:16.243Z,6.87
2018-09-21T10:16:44.533Z,7.05
2018-09-21T10:19:12.790Z,6.35
2018-09-21T10:21:41.038Z,8.75
2018-09-21T10:24:09.473Z,6.40
2018-09-21T10:26:37.894Z,15.15
2018-09-21T10:29:06.276Z,6.90
2018-09-21T10:31:34.531Z,7.62
2018-09-21T10:34:02.710Z,7.03
2018-09-21T10:36:31.282Z,5.65
2018-09-21T10:38:59.908Z,7.40
2018-09-21T10:41:28.195Z,8.78
2018-09-21T10:43:56.530Z,8.95
2018-09-21T10:46:24.914Z,5.87
2018-09-21T10:48:53.295Z,22.75
2018-09-21T10:51:21.628Z,6.40
2018-09-21T10:53:49.880Z,5.53
2018-09-21T10:56:18.085Z,12.23
2018-09-21T10:58:46.513Z,4.95
2018-09-21T11:01:15.131Z,6.28
2018-09-21T11:03:43.406Z,6.85
2018-09-21T11:06:11.680Z,6.50
2018-09-21T11:08:39.994Z,6.45
2018-09-21T11:11:08.779Z,9.38
2018-09-21T11:13:37.155Z,7.58
2018-09-21T11:16:05.507Z,9.15
2018-09-21T11:18:33.813Z,5.08
2018-09-21T11:21:02.970Z,9.18
2018-09-21T11:23:31.350Z,10.00
2018-09-21T11:25:59.674Z,10.25
2018-09-21T11:28:27.860Z,9.35
2018-09-21T11:30:56.285Z,8.35
2018-09-21T11:33:25.312Z,8.00
2018-09-21T11:35:53.895Z,7.28
2018-09-21T11:38:22.156Z,4.45
2018-09-21T11:40:50.554Z,7.30
2018-09-21T11:43:18.955Z,5.80
2018-09-21T11:45:47.404Z,6.03
2018-09-21T11:48:15.891Z,5.75
2018-09-21T11:50:44.185Z,7.30
2018-09-21T11:53:12.785Z,5.10
2018-09-21T11:55:41.082Z,5.83
2018-09-21T11:58:09.911Z,5.87
2018-09-21T12:00:38.330Z,8.78
2018-09-21T12:03:06.707Z,5.55
2018-09-21T12:05:35.462Z,7.62
2018-09-21T12:08:03.735Z,10.30
2018-09-21T12:10:32.255Z,4.92
2018-09-21T12:13:00.698Z,10.05
2018-09-21T12:15:28.972Z,5.20
2018-09-21T12:17:57.178Z,5.03
2018-09-21T12:20:25.394Z,5.20
2018-09-21T12:22:53.748Z,8.88
2018-09-21T12:25:22.253Z,6.42
2018-09-21T12:27:50.854Z,7.65
2018-09-21T12:30:19.205Z,8.58
2018-09-21T12:32:47.542Z,4.17
2018-09-21T12:35:16.436Z,6.28
2018-09-21T12:37:44.688Z,5.35
2018-09-21T12:40:12.911Z,6.20
2018-09-21T12:42:41.273Z,7.78
2018-09-21T12:45:10.151Z,8.33
2018-09-21T12:47:38.452Z,5.00
2018-09-21T12:50:07.346Z,6.10
2018-09-21T12:52:35.985Z,6.45
2018-09-21T12:55:04.407Z,7.92
2018-09-21T12:57:32.660Z,6.60
2018-09-21T13:00:01.023Z,4.22
2018-09-21T13:02:29.338Z,6.58
2018-09-21T13:04:57.584Z,6.03
2018-09-21T13:07:25.800Z,5.35
2018-09-21T13:09:54.153Z,6.20
2018-09-21T13:12:22.401Z,9.18
2018-09-21T13:14:50.932Z,7.40
2018-09-21T13:17:19.149Z,5.58
2018-09-21T13:19:47.479Z,6.80
2018-09-21T13:22:15.843Z,5.75
2018-09-21T13:24:44.187Z,4.22
2018-09-21T13:27:12.528Z,10.32
2018-09-21T13:29:40.726Z,8.80
2018-09-21T13:32:09.211Z,4.65
2018-09-21T13:34:38.183Z,5.78
2018-09-21T13:37:06.548Z,5.22
2018-09-21T13:39:34.795Z,6.03
2018-09-21T13:42:03.043Z,5.53
2018-09-21T13:44:31.490Z,10.68
2018-09-21T13:46:59.871Z,4.67
2018-09-21T13:49:28.154Z,4.62
2018-09-21T13:51:56.458Z,5.83
2018-09-21T13:54:25.315Z,5.30
2018-09-21T13:56:53.850Z,10.50
2018-09-21T13:59:22.995Z,6.08
2018-09-21T14:01:51.210Z,7.65
2018-09-21T14:04:19.492Z,6.87
2018-09-21T14:06:47.715Z,6.42
2018-09-21T14:09:16.067Z,7.87
2018-09-21T14:11:44.292Z,10.98
2018-09-21T14:14:12.514Z,6.35
2018-09-21T14:16:40.925Z,9.33
2018-09-21T14:19:09.178Z,8.43
2018-09-21T14:21:37.586Z,6.83
2018-09-21T14:24:05.788Z,7.08
2018-09-21T14:26:34.005Z,9.18
2018-09-21T14:29:02.460Z,9.28
2018-09-21T14:31:30.593Z,7.60
2018-09-21T14:33:58.859Z,9.40
2018-09-21T14:36:27.075Z,7.08
2018-09-21T14:38:55.588Z,12.07
2018-09-21T14:41:24.093Z,7.00
2018-09-21T14:43:52.346Z,6.53
2018-09-21T14:46:20.591Z,13.63
2018-09-21T14:48:48.967Z,7.70
2018-09-21T14:51:17.861Z,7.53
2018-09-21T14:53:46.347Z,9.40
2018-09-21T14:56:14.555Z,7.30
2018-09-21T14:58:42.987Z,11.20
2018-09-21T15:01:11.226Z,6.08
2018-09-21T15:03:40.181Z,8.10
2018-09-21T15:06:08.978Z,8.40
2018-09-21T15:08:37.244Z,8.67
2018-09-21T15:11:05.472Z,9.05
2018-09-21T15:13:33.677Z,11.75
2018-09-21T15:16:02.511Z,9.57
2018-09-21T15:18:30.826Z,10.37
2018-09-21T15:20:59.339Z,10.53
2018-09-21T15:23:27.696Z,13.83
2018-09-21T15:25:55.901Z,11.60
2018-09-21T15:28:24.283Z,8.53
2018-09-21T15:30:52.675Z,12.40
2018-09-21T15:33:20.885Z,11.50
2018-09-21T15:35:49.071Z,9.83
2018-09-21T15:38:17.325Z,11.43
2018-09-21T15:40:45.571Z,11.47
2018-09-21T15:43:13.894Z,10.00
2018-09-21T15:45:42.107Z,12.60
2018-09-21T15:48:10.627Z,10.83
2018-09-21T15:50:39.013Z,14.33
2018-09-21T15:53:07.463Z,11.00
2018-09-21T15:55:35.699Z,13.53
2018-09-21T15:58:03.927Z,15.23
2018-09-21T16:00:32.164Z,9.93
2018-09-21T16:03:00.426Z,10.10
2018-09-21T16:05:28.663Z,16.20
2018-09-21T16:07:56.890Z,15.77
2018-09-21T16:10:25.244Z,24.63
2018-09-21T16:12:53.461Z,15.07
2018-09-21T16:15:21.675Z,17.93
2018-09-21T16:17:49.883Z,15.17
2018-09-21T16:20:18.070Z,17.33
2018-09-21T16:22:46.496Z,13.63
2018-09-21T16:25:14.714Z,12.47
2018-09-21T16:27:42.910Z,15.77
2018-09-21T16:30:11.150Z,11.27
2018-09-21T16:32:39.475Z,9.57
2018-09-21T16:35:07.729Z,10.97
2018-09-21T16:37:35.935Z,6.00
2018-09-21T16:40:04.158Z,3.93
2018-09-21T16:42:32.607Z,8.07
2018-09-21T16:45:01.603Z,1.97
2018-09-21T16:47:29.822Z,4.97
2018-09-21T16:49:58.330Z,2.13
2018-09-21T16:52:26.553Z,2.77
2018-09-21T16:54:54.823Z,1.83
2018-09-21T16:57:23.070Z,1.67
2018-09-21T16:59:51.330Z,1.33
2018-09-21T17:02:19.558Z,0.83
2018-09-21T17:04:47.941Z,1.13
2018-09-21T17:07:16.542Z,1.03
2018-09-21T17:09:46.349Z,4.63
2018-09-21T17:12:14.534Z,2.37
2018-09-21T17:14:42.751Z,1.07
2018-09-21T17:17:11.072Z,2.30
2018-09-21T17:19:39.959Z,1.27
2018-09-21T17:22:08.198Z,2.07
2018-09-21T17:24:36.415Z,1.23
2018-09-21T17:27:04.709Z,1.17
2018-09-21T17:29:32.903Z,3.43
2018-09-21T17:32:01.152Z,1.40
2018-09-21T17:34:29.320Z,2.80
2018-09-21T17:36:57.535Z,2.50
2018-09-21T17:39:25.780Z,2.37
2018-09-21T17:41:54.983Z,3.00
2018-09-21T17:44:23.304Z,5.87
2018-09-21T17:46:51.588Z,1.77
2018-09-21T17:49:19.763Z,3.73
2018-09-21T17:51:48.053Z,2.30
2018-09-21T17:54:16.367Z,3.03
2018-09-21T17:56:44.555Z,1.77
2018-09-21T17:59:12.773Z,2.03
2018-09-21T18:01:40.950Z,4.80
2018-09-21T18:04:09.342Z,4.43
2018-09-21T18:06:37.551Z,3.73
2018-09-21T18:09:08.163Z,5.70
2018-09-21T18:11:36.464Z,5.33
2018-09-21T18:14:04.776Z,3.00
2018-09-21T18:16:33.096Z,2.67
2018-09-21T18:19:01.527Z,4.63
2018-09-21T18:21:29.918Z,2.93
2018-09-21T18:23:58.499Z,3.00
2018-09-21T18:26:26.733Z,1.93
2018-09-21T18:28:55.062Z,4.27
2018-09-21T18:31:23.449Z,2.60
2018-09-21T18:33:51.619Z,5.10
2018-09-21T18:36:19.862Z,4.47
2018-09-21T18:38:48.128Z,6.63
2018-09-21T18:41:16.371Z,2.37
2018-09-21T18:43:44.737Z,5.10
2018-09-21T18:46:12.978Z,2.87
2018-09-21T18:48:41.173Z,4.20
2018-09-21T18:51:09.574Z,5.43
2018-09-21T18:53:37.930Z,4.23
2018-09-21T18:56:06.124Z,4.40
2018-09-21T18:58:34.349Z,5.27
2018-09-21T19:01:02.962Z,3.00
2018-09-21T19:03:31.766Z,2.63
2018-09-21T19:06:00.036Z,2.67
2018-09-21T19:08:28.395Z,4.80
2018-09-21T19:10:57.704Z,4.87
2018-09-21T19:13:25.946Z,4.20
2018-09-21T19:15:54.306Z,2.10
2018-09-21T19:18:22.520Z,3.90
2018-09-21T19:20:50.710Z,2.50
2018-09-21T19:23:18.931Z,4.13
2018-09-21T19:25:47.307Z,4.97
2018-09-21T19:28:15.854Z,3.63
2018-09-21T19:30:44.131Z,2.80
2018-09-21T19:33:12.339Z,2.53
2018-09-21T19:35:40.960Z,4.47
2018-09-21T19:38:09.747Z,4.13
2018-09-21T19:40:38.429Z,6.00
2018-09-21T19:43:06.830Z,3.63
2018-09-21T19:45:35.102Z,3.77
2018-09-21T19:48:03.292Z,4.23
2018-09-21T19:50:32.483Z,4.30
2018-09-21T19:53:00.719Z,3.07
2018-09-21T19:55:28.947Z,3.50
2018-09-21T19:57:57.179Z,5.80
2018-09-21T20:00:25.603Z,6.60
2018-09-21T20:02:54.541Z,4.70
2018-09-21T20:05:23.020Z,2.77
2018-09-21T20:07:51.287Z,5.30
2018-09-21T20:10:19.991Z,7.20
2018-09-21T20:12:48.323Z,4.67
2018-09-21T20:15:17.238Z,4.80
2018-09-21T20:17:45.578Z,3.30
2018-09-21T20:20:13.915Z,9.73
2018-09-21T20:22:42.101Z,2.13
2018-09-21T20:25:10.293Z,2.80
2018-09-21T20:27:38.479Z,3.63
2018-09-21T20:30:12.258Z,8.87
2018-09-21T20:32:45.937Z,6.60
2018-09-21T20:35:14.238Z,3.37
2018-09-21T20:37:42.446Z,6.00
2018-09-21T20:40:10.663Z,2.30
2018-09-21T20:42:39.061Z,3.63
2018-09-21T20:45:07.373Z,4.73
2018-09-21T20:47:35.746Z,4.60
2018-09-21T20:50:04.014Z,5.80
2018-09-21T20:52:32.329Z,3.00
2018-09-21T20:55:00.754Z,3.30
2018-09-21T20:57:28.981Z,6.43
2018-09-21T20:59:57.191Z,5.10
2018-09-21T21:02:26.267Z,4.90
2018-09-21T21:04:54.544Z,4.60
2018-09-21T21:07:22.774Z,8.60
2018-09-21T21:09:51.027Z,3.20
2018-09-21T21:12:19.319Z,4.87
2018-09-21T21:14:47.591Z,4.00
2018-09-21T21:17:16.379Z,6.37
2018-09-21T21:19:44.646Z,7.73
2018-09-21T21:22:12.846Z,4.23
2018-09-21T21:24:41.112Z,4.10
2018-09-21T21:27:10.040Z,6.50
2018-09-21T21:29:39.321Z,6.67
2018-09-21T21:32:07.550Z,4.33
2018-09-21T21:34:35.884Z,6.17
2018-09-21T21:37:04.103Z,6.17
2018-09-21T21:39:32.497Z,6.07
2018-09-21T21:42:00.900Z,4.40
2018-09-21T21:44:29.223Z,10.70
2018-09-21T21:46:58.425Z,6.17
2018-09-21T21:49:26.809Z,4.30
2018-09-21T21:51:55.250Z,8.07
2018-09-21T21:54:24.046Z,12.23
2018-09-21T21:56:52.375Z,6.40
2018-09-21T21:59:20.600Z,6.10
2018-09-21T22:01:49.309Z,7.53
2018-09-21T22:04:18.489Z,5.87
2018-09-21T22:06:47.854Z,8.07
2018-09-21T22:09:16.113Z,9.53
2018-09-21T22:11:49.474Z,8.83
2018-09-21T22:14:18.006Z,7.43
2018-09-21T22:16:46.376Z,8.20
2018-09-21T22:19:35.465Z,7.97
2018-09-21T22:22:23.781Z,9.27
2018-09-21T22:24:52.711Z,6.97
2018-09-21T22:27:20.917Z,6.83
2018-09-21T22:29:49.974Z,8.73
2018-09-21T22:32:18.245Z,10.53
2018-09-21T22:34:46.794Z,8.37
2018-09-21T22:37:15.263Z,8.77
2018-09-21T22:39:43.497Z,6.77
2018-09-21T22:42:11.674Z,6.73
2018-09-21T22:44:39.927Z,7.70
2018-09-21T22:47:08.438Z,8.10
2018-09-21T22:49:36.653Z,10.53
2018-09-21T22:52:04.875Z,6.53
2018-09-21T22:54:33.083Z,8.37
2018-09-21T22:57:02.377Z,6.87
2018-09-21T22:59:31.431Z,6.23
2018-09-21T23:01:59.776Z,8.53
2018-09-21T23:04:28.007Z,7.07
2018-09-21T23:06:56.246Z,6.47
2018-09-21T23:09:24.558Z,5.80
2018-09-21T23:11:52.773Z,9.10
2018-09-21T23:14:21.010Z,8.63
2018-09-21T23:16:49.358Z,4.93
2018-09-21T23:19:18.177Z,6.77
2018-09-21T23:21:46.455Z,5.93
2018-09-21T23:24:14.650Z,6.43
2018-09-21T23:26:42.896Z,8.30
2018-09-21T23:29:11.122Z,4.53
2018-09-21T23:31:39.460Z,5.67
2018-09-21T23:34:07.773Z,8.30
2018-09-21T23:36:35.957Z,5.77
2018-09-21T23:39:06.177Z,6.03
2018-09-21T23:41:34.433Z,5.47
2018-09-21T23:44:02.856Z,3.60
2018-09-21T23:46:31.097Z,5.30
2018-09-21T23:48:59.290Z,6.53
2018-09-21T23:51:27.488Z,7.20
2018-09-21T23:53:55.670Z,6.47
2018-09-21T23:56:24.910Z,5.03
2018-09-21T23:58:53.710Z,6.43
